Pacific Titan — WCZ6844 — position and weather

sailwx.info

Track history (hours):
 
Tides and Currents Weather Stations Pressure Air Temp Water Temp Dewpoint Dewpoint Depression Visibility Wind Speed Wind Dir Waves Ship Positions

Pacific Titan

Owner: WESTERN TOWBOAT CO, SEATTLE, WA. More information available from US FCC via Universal Licensing System and Coast Guard Vessel Documentation Center.

Last reported at 2015-May-17 11:33 UTC. Time now 2015-May-23 13:26 UTC.
Position N 51°04' W 127°42'.

Type: Tow > 200 m length. MMSI: 338855000.

Date/timePositionNaut miles runAvg speedWind from/ knotsBaromVisibWave heightAir tempDewpointWater temp
2015-May-17 11:33N 51°04' W 127°42'1010.0
2015-May-17 10:33N 50°58' W 127°30'1010.5
2015-May-17 09:33N 50°52' W 127°16'10 9.8
2015-May-17 08:31N 50°46' W 127°03'9 9.0
2015-May-17 07:33N 50°41' W 126°53'9 8.8
2015-May-17 06:33N 50°35' W 126°42'8 8.4
2015-May-17 05:33N 50°30' W 126°31'93 9.1
2015-May-16 19:17N 49°38' W 124°31'7 9.8
2015-May-16 18:32N 49°34' W 124°22'10 9.5
2015-May-16 17:31N 49°29' W 124°09'9 9.5
2015-May-16 16:33N 49°24' W 123°57'9 8.9
2015-May-16 15:33N 49°19' W 123°45'9 9.0
2015-May-16 14:33N 49°14' W 123°35'9 9.4
2015-May-16 13:33N 49°07' W 123°25'9 9.3
2015-May-16 12:33N 49°00' W 123°14'9 9.1
2015-May-16 11:33N 48°54' W 123°04'1010.1
2015-May-16 10:33N 48°48' W 122°52'1010.0
2015-May-16 09:33N 48°40' W 122°43'1111.1
2015-May-16 08:33N 48°29' W 122°44'1210.1
2015-May-16 07:23N 48°17' W 122°47'14 7.4
2015-May-16 05:31N 48°05' W 122°38'9 9.6
2015-May-16 04:33N 47°57' W 122°31'110.1
2015-May-16 04:26N 47°56' W 122°30'9 9.8
2015-May-16 03:33N 47°48' W 122°26'0 9.4
2015-May-16 03:31N 47°47' W 122°26'9 9.7
2015-May-16 02:33N 47°38' W 122°26'0 9.9
2015-May-16 02:31N 47°38' W 122°25'5 5.1
2015-May-16 01:33N 47°34' W 122°21'1 3.2
2015-May-16 01:19N 47°33' W 122°21'0 0.0
2015-May-16 00:39N 47°33' W 122°21'0 0.0
2015-May-16 00:33N 47°33' W 122°21'0 0.0
2015-May-15 23:33N 47°33' W 122°21'0 0.0
2015-May-15 23:29N 47°33' W 122°21'2 1.4
2015-May-15 22:17N 47°35' W 122°22'5 7.4
2015-May-15 21:33N 47°39' W 122°26'2 2.3
2015-May-15 20:33N 47°40' W 122°23'  
2015-May-12 23:08N 47°39' W 122°22'0 0.2
2015-May-12 23:06N 47°39' W 122°22'2 3.1
2015-May-12 22:33N 47°40' W 122°24'0 5.0
2015-May-12 22:30N 47°40' W 122°24'8 8.4
2015-May-12 21:33N 47°34' W 122°31'0 0.9
2015-May-12 21:09N 47°34' W 122°31'2 4.1
2015-May-12 20:33N 47°35' W 122°34'0 4.7
2015-May-12 20:28N 47°35' W 122°35'4 3.9
2015-May-12 19:33N 47°33' W 122°39'0 0.5
2015-May-12 18:53N 47°33' W 122°39'2 4.9
2015-May-12 18:33N 47°34' W 122°37'0 0.0
2015-May-12 18:33N 47°34' W 122°37'5 4.7
2015-May-12 17:33N 47°34' W 122°30'0 7.6
2015-May-12 17:32N 47°34' W 122°30'5 4.8
2015-May-12 16:33N 47°37' W 122°24'0 7.0
2015-May-12 16:31N 47°37' W 122°25'3 2.6
2015-May-12 15:33N 47°40' W 122°24'0 0.0
2015-May-12 15:32N 47°40' W 122°24'1 1.4
2015-May-12 14:33N 47°39' W 122°22'0 0.0
2015-May-11 16:35N 47°39' W 122°22'0 0.0
2015-May-11 16:33N 47°39' W 122°22'0 2.7
2015-May-11 16:29N 47°39' W 122°22'3 2.9
2015-May-11 15:33N 47°37' W 122°25'111.7
2015-May-11 15:29N 47°37' W 122°24'1 1.4
2015-May-11 14:33N 47°36' W 122°23'0 0.0
2015-May-11 14:33N 47°36' W 122°23'7 7.2
2015-May-11 13:33N 47°42' W 122°28'0 0.0
2015-May-11 13:33N 47°42' W 122°28'10 9.9
2015-May-11 12:33N 47°52' W 122°29'1 8.9
2015-May-11 12:27N 47°53' W 122°29'8 8.4
2015-May-11 11:33N 47°59' W 122°36'8 7.9
2015-May-11 10:31N 48°06' W 122°40'8 7.4
2015-May-11 09:30N 48°12' W 122°48'9 9.4
2015-May-11 08:33N 48°21' W 122°46'9 9.0
2015-May-11 07:33N 48°29' W 122°44'8 8.0
2015-May-11 06:33N 48°37' W 122°45'7 7.4
2015-May-11 05:33N 48°45' W 122°47'9 9.4
2015-May-11 04:33N 48°50' W 122°59'9 9.0
2015-May-11 03:33N 48°55' W 123°10'9 9.4
2015-May-11 02:33N 49°02' W 123°21'10 9.9
2015-May-11 01:33N 49°08' W 123°32'1010.2
2015-May-11 00:33N 49°15' W 123°44'1010.3
2015-May-10 23:33N 49°22' W 123°56'1510.3
2015-May-10 22:08N 49°31' W 124°13'610.2
2015-May-10 21:30N 49°34' W 124°22'1110.2
2015-May-10 20:28N 49°40' W 124°35'1010.1
2015-May-10 19:28N 49°46' W 124°48'910.1
2015-May-10 18:33N 49°52' W 124°59'1010.2
2015-May-10 17:33N 49°58' W 125°11'1410.7
2015-May-10 16:15N 50°10' W 125°22'710.0
2015-May-10 15:33N 50°17' W 125°24'11 9.4
2015-May-10 14:22N 50°22' W 125°40'2410.4
2015-May-10 12:03N 50°29' W 126°16'5 9.9
2015-May-10 11:30N 50°30' W 126°24'9 9.4
2015-May-10 10:32N 50°31' W 126°39'9 8.6
2015-May-10 09:31N 50°38' W 126°47'10 9.4
2015-May-10 08:29N 50°43' W 127°00'9 9.9
2015-May-10 07:33N 50°48' W 127°12'10 9.9
2015-May-10 06:33N 50°55' W 127°24'9 9.3
2015-May-10 05:33N 50°60' W 127°36'10 9.5
2015-May-10 04:33N 51°07' W 127°47'1110.0
2015-May-10 03:30N 51°16' W 127°54'12 9.9
2015-May-10 02:17N 51°26' W 128°06'  
Track history (hours):
 
Tides and Currents Weather Stations Pressure Air Temp Water Temp Dewpoint Dewpoint Depression Visibility Wind Speed Wind Dir Waves Ship Positions

Pacific Titan

Owner: WESTERN TOWBOAT CO, SEATTLE, WA. More information available from US FCC via Universal Licensing System and Coast Guard Vessel Documentation Center.

Last reported at 2015-May-17 11:33 UTC. Time now 2015-May-23 13:26 UTC.
Position N 51°04' W 127°42'.

Type: Tow > 200 m length. MMSI: 338855000.

Date/timePositionNaut miles runAvg speedWind from/ knotsBaromVisibWave heightAir tempDewpointWater temp
2015-May-17 11:33N 51°04' W 127°42'1010.0
2015-May-17 10:33N 50°58' W 127°30'1010.5
2015-May-17 09:33N 50°52' W 127°16'10 9.8
2015-May-17 08:31N 50°46' W 127°03'9 9.0
2015-May-17 07:33N 50°41' W 126°53'9 8.8
2015-May-17 06:33N 50°35' W 126°42'8 8.4
2015-May-17 05:33N 50°30' W 126°31'93 9.1
2015-May-16 19:17N 49°38' W 124°31'7 9.8
2015-May-16 18:32N 49°34' W 124°22'10 9.5
2015-May-16 17:31N 49°29' W 124°09'9 9.5
2015-May-16 16:33N 49°24' W 123°57'9 8.9
2015-May-16 15:33N 49°19' W 123°45'9 9.0
2015-May-16 14:33N 49°14' W 123°35'9 9.4
2015-May-16 13:33N 49°07' W 123°25'9 9.3
2015-May-16 12:33N 49°00' W 123°14'9 9.1
2015-May-16 11:33N 48°54' W 123°04'1010.1
2015-May-16 10:33N 48°48' W 122°52'1010.0
2015-May-16 09:33N 48°40' W 122°43'1111.1
2015-May-16 08:33N 48°29' W 122°44'1210.1
2015-May-16 07:23N 48°17' W 122°47'14 7.4
2015-May-16 05:31N 48°05' W 122°38'9 9.6
2015-May-16 04:33N 47°57' W 122°31'110.1
2015-May-16 04:26N 47°56' W 122°30'9 9.8
2015-May-16 03:33N 47°48' W 122°26'0 9.4
2015-May-16 03:31N 47°47' W 122°26'9 9.7
2015-May-16 02:33N 47°38' W 122°26'0 9.9
2015-May-16 02:31N 47°38' W 122°25'5 5.1
2015-May-16 01:33N 47°34' W 122°21'1 3.2
2015-May-16 01:19N 47°33' W 122°21'0 0.0
2015-May-16 00:39N 47°33' W 122°21'0 0.0
2015-May-16 00:33N 47°33' W 122°21'0 0.0
2015-May-15 23:33N 47°33' W 122°21'0 0.0
2015-May-15 23:29N 47°33' W 122°21'2 1.4
2015-May-15 22:17N 47°35' W 122°22'5 7.4
2015-May-15 21:33N 47°39' W 122°26'2 2.3
2015-May-15 20:33N 47°40' W 122°23'  
2015-May-12 23:08N 47°39' W 122°22'0 0.2
2015-May-12 23:06N 47°39' W 122°22'2 3.1
2015-May-12 22:33N 47°40' W 122°24'0 5.0
2015-May-12 22:30N 47°40' W 122°24'8 8.4
2015-May-12 21:33N 47°34' W 122°31'0 0.9
2015-May-12 21:09N 47°34' W 122°31'2 4.1
2015-May-12 20:33N 47°35' W 122°34'0 4.7
2015-May-12 20:28N 47°35' W 122°35'4 3.9
2015-May-12 19:33N 47°33' W 122°39'0 0.5
2015-May-12 18:53N 47°33' W 122°39'2 4.9
2015-May-12 18:33N 47°34' W 122°37'0 0.0
2015-May-12 18:33N 47°34' W 122°37'5 4.7
2015-May-12 17:33N 47°34' W 122°30'0 7.6
2015-May-12 17:32N 47°34' W 122°30'5 4.8
2015-May-12 16:33N 47°37' W 122°24'0 7.0
2015-May-12 16:31N 47°37' W 122°25'3 2.6
2015-May-12 15:33N 47°40' W 122°24'0 0.0
2015-May-12 15:32N 47°40' W 122°24'1 1.4
2015-May-12 14:33N 47°39' W 122°22'0 0.0
2015-May-11 16:35N 47°39' W 122°22'0 0.0
2015-May-11 16:33N 47°39' W 122°22'0 2.7
2015-May-11 16:29N 47°39' W 122°22'3 2.9
2015-May-11 15:33N 47°37' W 122°25'111.7
2015-May-11 15:29N 47°37' W 122°24'1 1.4
2015-May-11 14:33N 47°36' W 122°23'0 0.0
2015-May-11 14:33N 47°36' W 122°23'7 7.2
2015-May-11 13:33N 47°42' W 122°28'0 0.0
2015-May-11 13:33N 47°42' W 122°28'10 9.9
2015-May-11 12:33N 47°52' W 122°29'1 8.9
2015-May-11 12:27N 47°53' W 122°29'8 8.4
2015-May-11 11:33N 47°59' W 122°36'8 7.9
2015-May-11 10:31N 48°06' W 122°40'8 7.4
2015-May-11 09:30N 48°12' W 122°48'9 9.4
2015-May-11 08:33N 48°21' W 122°46'9 9.0
2015-May-11 07:33N 48°29' W 122°44'8 8.0
2015-May-11 06:33N 48°37' W 122°45'7 7.4
2015-May-11 05:33N 48°45' W 122°47'9 9.4
2015-May-11 04:33N 48°50' W 122°59'9 9.0
2015-May-11 03:33N 48°55' W 123°10'9 9.4
2015-May-11 02:33N 49°02' W 123°21'10 9.9
2015-May-11 01:33N 49°08' W 123°32'1010.2
2015-May-11 00:33N 49°15' W 123°44'1010.3
2015-May-10 23:33N 49°22' W 123°56'1510.3
2015-May-10 22:08N 49°31' W 124°13'610.2
2015-May-10 21:30N 49°34' W 124°22'1110.2
2015-May-10 20:28N 49°40' W 124°35'1010.1
2015-May-10 19:28N 49°46' W 124°48'910.1
2015-May-10 18:33N 49°52' W 124°59'1010.2
2015-May-10 17:33N 49°58' W 125°11'1410.7
2015-May-10 16:15N 50°10' W 125°22'710.0
2015-May-10 15:33N 50°17' W 125°24'11 9.4
2015-May-10 14:22N 50°22' W 125°40'2410.4
2015-May-10 12:03N 50°29' W 126°16'5 9.9
2015-May-10 11:30N 50°30' W 126°24'9 9.4
2015-May-10 10:32N 50°31' W 126°39'9 8.6
2015-May-10 09:31N 50°38' W 126°47'10 9.4
2015-May-10 08:29N 50°43' W 127°00'9 9.9
2015-May-10 07:33N 50°48' W 127°12'10 9.9
2015-May-10 06:33N 50°55' W 127°24'9 9.3
2015-May-10 05:33N 50°60' W 127°36'10 9.5
2015-May-10 04:33N 51°07' W 127°47'1110.0
2015-May-10 03:30N 51°16' W 127°54'12 9.9
2015-May-10 02:17N 51°26' W 128°06'  

Dump ship's entire track history